createdAt,value
2018-09-19T06:29:27.141Z,19.90
2018-09-19T06:32:31.270Z,20.30
2018-09-19T06:35:35.410Z,21.20
2018-09-19T06:38:39.623Z,22.10
2018-09-19T06:41:43.917Z,21.50
2018-09-19T06:44:48.102Z,21.80
2018-09-19T06:47:52.193Z,22.90
2018-09-19T06:50:56.345Z,22.80
2018-09-19T06:54:00.468Z,23.80
2018-09-19T06:57:04.609Z,24.40
2018-09-19T07:00:08.838Z,22.30
2018-09-19T07:03:13.042Z,22.80
2018-09-19T07:06:17.884Z,22.50
2018-09-19T07:09:22.061Z,22.30
2018-09-19T07:12:26.227Z,23.40
2018-09-19T07:15:30.360Z,22.70
2018-09-19T07:18:34.545Z,22.80
2018-09-19T07:21:38.816Z,23.00
2018-09-19T07:24:42.953Z,22.80
2018-09-19T07:27:47.101Z,24.60
2018-09-19T07:30:51.472Z,25.70
2018-09-19T07:33:55.581Z,25.50
2018-09-19T07:36:59.719Z,27.10
2018-09-19T07:40:03.935Z,28.30
2018-09-19T07:43:08.037Z,28.40
2018-09-19T07:46:12.168Z,27.30
2018-09-19T07:49:16.339Z,26.80
2018-09-19T07:52:20.476Z,26.00
2018-09-19T07:55:24.681Z,26.00
2018-09-19T07:58:28.982Z,25.60
2018-09-19T08:01:33.142Z,26.40
2018-09-19T08:04:37.225Z,28.20
2018-09-19T08:07:41.373Z,27.30
2018-09-19T08:10:45.444Z,25.10
2018-09-19T08:13:49.572Z,24.50
2018-09-19T08:16:53.748Z,24.50
2018-09-19T08:19:58.694Z,24.70
2018-09-19T08:23:02.804Z,26.00
2018-09-19T08:26:06.938Z,27.10
2018-09-19T08:29:11.010Z,26.50
2018-09-19T08:32:15.157Z,25.90
2018-09-19T08:35:19.242Z,25.80
2018-09-19T08:38:23.370Z,25.90
2018-09-19T08:41:27.578Z,27.40
2018-09-19T08:44:31.826Z,28.40
2018-09-19T08:47:35.965Z,29.90
2018-09-19T08:50:40.426Z,31.00
2018-09-19T08:53:44.475Z,31.80
2018-09-19T08:56:48.634Z,32.60
2018-09-19T08:59:52.747Z,32.10
2018-09-19T09:02:56.959Z,31.90
2018-09-19T09:06:01.086Z,31.20
2018-09-19T09:09:06.893Z,32.10
2018-09-19T09:12:11.082Z,33.10
2018-09-19T09:15:15.204Z,32.80
2018-09-19T09:18:19.371Z,32.50
2018-09-19T09:21:23.577Z,33.10
2018-09-19T09:24:27.677Z,33.90
2018-09-19T09:27:31.752Z,34.20
2018-09-19T09:30:36.551Z,33.80
2018-09-19T09:33:40.769Z,33.10
2018-09-19T09:36:44.965Z,33.20
2018-09-19T09:39:49.033Z,33.40
2018-09-19T09:42:53.197Z,33.20
2018-09-19T09:45:57.271Z,33.00
2018-09-19T09:49:01.352Z,33.70
2018-09-19T09:52:05.551Z,35.00
2018-09-19T09:55:09.707Z,35.40
2018-09-19T09:58:13.761Z,34.60
2018-09-19T10:01:17.867Z,33.20
2018-09-19T10:04:22.011Z,33.20
2018-09-19T10:07:26.242Z,33.30
2018-09-19T10:10:30.370Z,33.50
2018-09-19T10:13:34.513Z,33.00
2018-09-19T10:16:38.755Z,33.80
2018-09-19T10:19:42.881Z,33.70
2018-09-19T10:22:46.958Z,33.20
2018-09-19T10:25:51.089Z,32.70
2018-09-19T10:28:55.335Z,32.80
2018-09-19T10:31:59.591Z,33.90
2018-09-19T10:35:03.735Z,33.80
2018-09-19T10:38:07.868Z,33.70
2018-09-19T10:41:12.242Z,33.20
2018-09-19T10:44:16.339Z,32.70
2018-09-19T10:47:20.481Z,33.40
2018-09-19T10:50:24.591Z,34.30
2018-09-19T10:53:28.749Z,34.60
2018-09-19T10:56:32.854Z,35.10
2018-09-19T10:59:38.248Z,35.90
2018-09-19T11:02:42.324Z,35.30
2018-09-19T11:05:46.435Z,33.80
2018-09-19T11:08:50.611Z,34.20
2018-09-19T11:11:54.712Z,34.30
2018-09-19T11:14:58.815Z,33.80
2018-09-19T11:18:02.939Z,33.50
2018-09-19T11:21:07.040Z,33.50
2018-09-19T11:24:11.172Z,32.90
2018-09-19T11:27:15.277Z,31.90
2018-09-19T11:30:19.376Z,31.50
2018-09-19T11:33:23.475Z,31.10
2018-09-19T11:36:27.592Z,30.50
2018-09-19T11:39:31.681Z,30.40
2018-09-19T11:42:35.828Z,30.50
2018-09-19T11:45:40.144Z,30.60
2018-09-19T11:48:44.322Z,30.60
2018-09-19T11:51:49.238Z,30.20
2018-09-19T11:54:53.385Z,29.70
2018-09-19T11:57:57.610Z,29.60
2018-09-19T12:01:01.678Z,29.50
2018-09-19T12:04:05.856Z,29.40
2018-09-19T12:07:09.985Z,29.40
2018-09-19T12:10:14.377Z,29.20
2018-09-19T12:13:18.526Z,29.10
2018-09-19T12:16:22.637Z,29.00
2018-09-19T12:19:26.806Z,29.10
2018-09-19T12:22:30.840Z,29.00
2018-09-19T12:25:34.988Z,28.90
2018-09-19T12:28:39.216Z,28.80
2018-09-19T12:31:43.318Z,28.70
2018-09-19T12:34:47.440Z,28.60
2018-09-19T12:37:51.617Z,28.60
2018-09-19T12:40:55.946Z,28.40
2018-09-19T12:44:00.095Z,28.40
2018-09-19T12:47:04.252Z,28.30
2018-09-19T12:50:08.425Z,28.40
2018-09-19T12:53:12.569Z,28.40
2018-09-19T12:56:16.798Z,28.50
2018-09-19T12:59:20.987Z,28.50
2018-09-19T13:02:25.118Z,28.60
2018-09-19T13:05:32.417Z,28.60
2018-09-19T13:08:36.531Z,28.50
2018-09-19T13:11:41.599Z,28.50
2018-09-19T13:14:45.706Z,28.40
2018-09-19T13:17:49.839Z,28.30
2018-09-19T13:20:53.976Z,28.40
2018-09-19T13:23:58.054Z,28.40
2018-09-19T13:27:02.187Z,28.50
2018-09-19T13:30:06.345Z,28.50
2018-09-19T13:33:10.442Z,28.60
2018-09-19T13:36:14.582Z,28.70
2018-09-19T13:39:18.742Z,28.70
2018-09-19T13:42:22.851Z,28.70
2018-09-19T13:45:26.977Z,28.60
2018-09-19T13:48:31.121Z,28.70
2018-09-19T13:51:35.233Z,28.70
2018-09-19T13:54:39.368Z,28.50
2018-09-19T13:57:44.297Z,28.50
2018-09-19T14:00:49.083Z,28.40
2018-09-19T14:03:53.180Z,28.40
2018-09-19T14:06:57.458Z,28.30
2018-09-19T14:10:01.536Z,28.50
2018-09-19T14:13:07.237Z,28.50
2018-09-19T14:16:11.546Z,28.50
2018-09-19T14:19:16.136Z,28.40
2018-09-19T14:22:20.326Z,28.40
2018-09-19T14:25:24.996Z,28.40
2018-09-19T14:28:29.181Z,28.30
2018-09-19T14:31:33.230Z,28.30
2018-09-19T14:34:37.584Z,28.20
2018-09-19T14:37:41.721Z,28.10
2018-09-19T14:40:45.950Z,28.10
2018-09-19T14:43:50.052Z,28.00
2018-09-19T14:46:54.182Z,27.90
2018-09-19T14:49:58.420Z,27.90
2018-09-19T14:53:02.574Z,28.00
2018-09-19T14:56:06.764Z,28.00
2018-09-19T14:59:10.912Z,28.10
2018-09-19T15:02:15.140Z,28.10
2018-09-19T15:05:19.283Z,28.00
2018-09-19T15:08:23.442Z,28.00
2018-09-19T15:11:27.551Z,27.90
2018-09-19T15:14:31.730Z,27.80
2018-09-19T15:17:35.884Z,27.70
2018-09-19T15:20:40.072Z,27.70
2018-09-19T15:23:44.218Z,27.70
2018-09-19T15:26:48.423Z,27.60
2018-09-19T15:29:52.534Z,27.60
2018-09-19T15:32:56.667Z,27.50
2018-09-19T15:36:00.819Z,27.40
2018-09-19T15:39:07.102Z,27.40
2018-09-19T15:42:11.234Z,27.40
2018-09-19T15:45:15.352Z,27.30
2018-09-19T15:48:19.508Z,27.30
2018-09-19T15:51:23.649Z,27.30
2018-09-19T15:54:27.789Z,27.30
2018-09-19T15:57:31.951Z,27.40
2018-09-19T16:00:36.040Z,27.40
2018-09-19T16:03:40.340Z,27.30
2018-09-19T16:06:44.497Z,27.30
2018-09-19T16:09:48.620Z,27.20
2018-09-19T16:12:52.963Z,27.20
2018-09-19T16:15:57.210Z,27.10
2018-09-19T16:19:01.589Z,27.00
2018-09-19T16:22:05.749Z,27.00
2018-09-19T16:25:09.934Z,26.80
2018-09-19T16:28:14.025Z,26.70
2018-09-19T16:31:18.209Z,26.60
2018-09-19T16:34:22.339Z,26.60
2018-09-19T16:37:26.480Z,26.50
2018-09-19T16:40:30.657Z,26.40
2018-09-19T16:43:34.872Z,26.30
2018-09-19T16:46:39.163Z,26.20
2018-09-19T16:49:43.277Z,26.10
2018-09-19T16:52:47.514Z,26.10
2018-09-19T16:55:51.647Z,26.00
2018-09-19T16:58:55.800Z,26.00
2018-09-19T17:01:59.978Z,26.00
2018-09-19T17:05:04.191Z,26.00
2018-09-19T17:08:08.359Z,25.90
2018-09-19T17:11:12.519Z,25.80
2018-09-19T17:14:16.617Z,25.70
2018-09-19T17:17:20.722Z,25.70
2018-09-19T17:20:24.879Z,25.70
2018-09-19T17:23:28.997Z,25.70
2018-09-19T17:26:33.150Z,25.60
2018-09-19T17:29:37.254Z,25.50
2018-09-19T17:32:41.509Z,25.40
2018-09-19T17:35:45.658Z,25.30
2018-09-19T17:38:49.814Z,25.20
2018-09-19T17:41:54.040Z,25.10
2018-09-19T17:44:58.242Z,24.90
2018-09-19T17:48:02.628Z,24.80
2018-09-19T17:51:07.419Z,24.80
2018-09-19T17:54:11.753Z,24.80
2018-09-19T17:57:15.864Z,24.70
2018-09-19T18:00:20.082Z,24.60
2018-09-19T18:03:24.211Z,24.60
2018-09-19T18:06:28.427Z,24.50
2018-09-19T18:09:32.609Z,24.40
2018-09-19T18:12:36.794Z,24.40
2018-09-19T18:15:41.868Z,24.20
2018-09-19T18:18:46.022Z,24.10
2018-09-19T18:21:50.684Z,24.00
2018-09-19T18:24:54.799Z,23.80
2018-09-19T18:27:58.921Z,23.70
2018-09-19T18:31:03.024Z,23.60
2018-09-19T18:34:07.619Z,23.50
2018-09-19T18:37:11.772Z,23.40
2018-09-19T18:40:15.903Z,23.30
2018-09-19T18:43:20.016Z,23.20
2018-09-19T18:46:24.201Z,23.10
2018-09-19T18:49:28.288Z,23.10
2018-09-19T18:52:32.428Z,23.00
2018-09-19T18:55:36.560Z,22.80
2018-09-19T18:58:40.926Z,22.70
2018-09-19T19:01:45.135Z,22.70
2018-09-19T19:04:49.223Z,22.60
2018-09-19T19:07:53.389Z,22.40
2018-09-19T19:10:57.656Z,22.30
2018-09-19T19:14:01.901Z,22.30
2018-09-19T19:17:06.041Z,22.20
2018-09-19T19:20:10.254Z,22.00
2018-09-19T19:23:14.574Z,21.80
2018-09-19T19:26:18.721Z,21.60
2018-09-19T19:29:22.849Z,21.40
2018-09-19T19:32:27.218Z,21.30
2018-09-19T19:35:31.431Z,21.20
2018-09-19T19:38:35.633Z,21.10
2018-09-19T19:41:40.160Z,21.00
2018-09-19T19:44:44.495Z,21.00
2018-09-19T19:47:49.127Z,20.90
2018-09-19T19:50:53.304Z,20.80
2018-09-19T19:53:57.450Z,20.80
2018-09-19T19:57:01.577Z,20.70
2018-09-19T20:00:06.066Z,20.60
2018-09-19T20:03:10.207Z,20.60
2018-09-19T20:06:14.377Z,20.50
2018-09-19T20:09:18.493Z,20.40
2018-09-19T20:12:22.698Z,20.40
2018-09-19T20:15:26.847Z,20.30
2018-09-19T20:18:31.058Z,20.10
2018-09-19T20:21:35.226Z,20.00
2018-09-19T20:24:39.471Z,19.90
2018-09-19T20:27:43.634Z,19.80
2018-09-19T20:30:47.777Z,19.70
2018-09-19T20:33:51.981Z,19.60
2018-09-19T20:36:56.096Z,19.50
2018-09-19T20:40:00.295Z,19.50
2018-09-19T20:43:04.474Z,19.40
2018-09-19T20:46:08.923Z,19.40
2018-09-19T20:49:13.047Z,19.30
2018-09-19T20:52:17.236Z,19.30
2018-09-19T20:55:21.315Z,19.30
2018-09-19T20:58:25.522Z,19.20
2018-09-19T21:01:29.719Z,19.10
2018-09-19T21:04:34.083Z,19.00
2018-09-19T21:07:38.355Z,19.00
2018-09-19T21:10:42.511Z,19.00
2018-09-19T21:13:46.610Z,18.90
2018-09-19T21:16:50.704Z,18.80
2018-09-19T21:19:54.863Z,18.90
2018-09-19T21:22:59.264Z,18.90
2018-09-19T21:26:03.506Z,18.80
2018-09-19T21:29:07.769Z,18.80
2018-09-19T21:32:11.980Z,18.70
2018-09-19T21:35:16.137Z,18.60
2018-09-19T21:38:20.204Z,18.60
2018-09-19T21:41:24.387Z,18.60
2018-09-19T21:44:28.532Z,18.60
2018-09-19T21:47:32.936Z,18.60
2018-09-19T21:50:37.082Z,18.60
2018-09-19T21:53:41.331Z,18.60
2018-09-19T21:56:45.449Z,18.50
2018-09-19T21:59:49.607Z,18.60
2018-09-19T22:02:53.769Z,18.60
2018-09-19T22:05:58.033Z,18.60
2018-09-19T22:09:02.186Z,18.50
2018-09-19T22:12:09.543Z,18.50
2018-09-19T22:15:13.690Z,18.60
2018-09-19T22:18:17.899Z,18.80
2018-09-19T22:21:22.044Z,18.80
2018-09-19T22:24:26.234Z,18.70
2018-09-19T22:27:30.435Z,18.60
2018-09-19T22:30:34.573Z,18.70
2018-09-19T22:33:38.747Z,18.80
2018-09-19T22:36:42.904Z,18.80
2018-09-19T22:39:47.088Z,18.60
2018-09-19T22:42:51.260Z,18.50
2018-09-19T22:45:55.501Z,18.30
2018-09-19T22:48:59.609Z,18.20
2018-09-19T22:52:03.692Z,18.20
2018-09-19T22:55:07.820Z,18.10
2018-09-19T22:58:11.947Z,18.10
2018-09-19T23:01:16.064Z,18.00
2018-09-19T23:04:20.419Z,18.00
2018-09-19T23:07:24.539Z,17.90
2018-09-19T23:10:28.621Z,17.90
2018-09-19T23:13:32.763Z,17.80
2018-09-19T23:16:36.824Z,17.70
2018-09-19T23:19:41.043Z,17.80
2018-09-19T23:22:45.210Z,17.80
2018-09-19T23:25:49.298Z,17.70
2018-09-19T23:28:53.370Z,17.70
2018-09-19T23:31:57.569Z,17.70
2018-09-19T23:35:01.681Z,17.70
2018-09-19T23:38:05.908Z,17.60
2018-09-19T23:41:10.014Z,17.60
2018-09-19T23:44:14.119Z,17.60
2018-09-19T23:47:19.168Z,17.50
2018-09-19T23:50:23.279Z,17.30
2018-09-19T23:53:27.406Z,17.20
2018-09-19T23:56:31.548Z,17.10
2018-09-19T23:59:35.780Z,17.10
